Time;durP1;ratioP1;P1;durP2;ratioP2;P2;SDS_P1;SDS_P2;PMS_P1;PMS_P2;Temp;Humidity;BMP_temperature;BMP_pressure;BME280_temperature;BME280_humidity;BME280_pressure;Samples;Min_cycle;Max_cycle;Signal;HPM_P1;HPM_P2
2022/03/09 07:02:53;;;;;;;27.95;14.93;;;;;;;;;;4949383;23;20055;-60
2022/03/09 07:05:19;;;;;;;30.05;14.70;;;;;;;;;;4955611;29;20039;-60
2022/03/09 07:07:45;;;;;;;30.25;15.20;;;;;;;;;;4955519;29;20387;-60
2022/03/09 07:10:13;;;;;;;27.90;13.93;;;;;;;;;;4955261;29;20145;-60
2022/03/09 07:12:39;;;;;;;32.42;14.90;;;;;;;;;;4955617;29;20223;-61
2022/03/09 07:15:06;;;;;;;29.45;15.35;;;;;;;;;;4954894;29;20067;-60
2022/03/09 07:17:32;;;;;;;28.38;14.13;;;;;;;;;;4955101;29;20019;-59
2022/03/09 07:19:58;;;;;;;28.65;14.15;;;;;;;;;;4954997;29;20023;-60
2022/03/09 07:22:24;;;;;;;29.80;14.25;;;;;;;;;;4955392;28;20035;-60
2022/03/09 07:24:50;;;;;;;30.55;14.38;;;;;;;;;;4955324;29;20384;-60
2022/03/09 07:27:16;;;;;;;32.10;16.02;;;;;;;;;;4955086;29;20031;-61
2022/03/09 07:29:42;;;;;;;30.60;16.02;;;;;;;;;;4955216;29;20038;-59
2022/03/09 07:32:14;;;;;;;35.20;17.15;;;;;;;;;;4955147;28;20019;-59
2022/03/09 07:34:40;;;;;;;31.75;17.17;;;;;;;;;;4955119;29;20024;-60
2022/03/09 07:37:06;;;;;;;25.92;12.20;;;;;;;;;;4954976;29;20098;-60
2022/03/09 07:39:32;;;;;;;19.80;10.10;;;;;;;;;;4954742;29;20325;-60
2022/03/09 07:41:59;;;;;;;13.68;6.60;;;;;;;;;;4954871;29;20046;-63
2022/03/09 07:44:25;;;;;;;16.58;9.52;;;;;;;;;;4954453;28;20039;-62
2022/03/09 07:46:51;;;;;;;17.50;9.13;;;;;;;;;;4954514;29;20637;-61
2022/03/09 07:49:18;;;;;;;22.73;10.15;;;;;;;;;;4954827;29;20028;-62
2022/03/09 07:51:45;;;;;;;27.05;12.68;;;;;;;;;;4954591;29;20042;-62
2022/03/09 07:54:11;;;;;;;15.48;9.00;;;;;;;;;;4954438;29;20059;-62
2022/03/09 07:56:37;;;;;;;22.88;11.85;;;;;;;;;;4951554;28;20403;-63
2022/03/09 07:59:04;;;;;;;22.92;11.27;;;;;;;;;;4953300;28;20027;-62
2022/03/09 08:01:30;;;;;;;18.77;8.07;;;;;;;;;;4947402;29;20052;-62
2022/03/09 08:03:56;;;;;;;21.50;10.05;;;;;;;;;;4933802;29;20028;-62
2022/03/09 08:06:22;;;;;;;18.85;10.32;;;;;;;;;;4933763;29;20507;-60
2022/03/09 08:08:48;;;;;;;17.77;10.65;;;;;;;;;;4930698;29;20341;-60
2022/03/09 08:11:15;;;;;;;21.55;10.55;;;;;;;;;;4934355;29;20031;-63
2022/03/09 08:13:41;;;;;;;18.77;9.82;;;;;;;;;;4934837;29;20149;-62
2022/03/09 08:16:07;;;;;;;33.13;14.75;;;;;;;;;;4934322;29;20027;-64
2022/03/09 08:18:34;;;;;;;33.00;16.70;;;;;;;;;;4928447;29;20088;-61
2022/03/09 08:21:00;;;;;;;63.30;28.13;;;;;;;;;;4915987;29;20036;-59
2022/03/09 08:23:26;;;;;;;37.20;14.65;;;;;;;;;;4916120;29;20125;-61
2022/03/09 08:25:52;;;;;;;29.38;13.90;;;;;;;;;;4915802;29;20032;-61
2022/03/09 08:28:18;;;;;;;22.20;11.43;;;;;;;;;;4915862;29;20111;-62
2022/03/09 08:30:45;;;;;;;23.02;11.73;;;;;;;;;;4915810;29;20035;-62
2022/03/09 08:33:11;;;;;;;19.90;9.25;;;;;;;;;;4915656;29;20065;-59
2022/03/09 08:35:37;;;;;;;19.92;7.75;;;;;;;;;;4915402;29;20413;-59
2022/03/09 08:38:04;;;;;;;24.88;13.80;;;;;;;;;;4915531;29;20025;-61
2022/03/09 08:40:30;;;;;;;26.60;13.60;;;;;;;;;;4915383;29;20043;-61
2022/03/09 08:42:56;;;;;;;23.50;13.15;;;;;;;;;;4915623;29;20559;-61
2022/03/09 08:45:22;;;;;;;26.48;12.00;;;;;;;;;;4915326;29;20040;-61
2022/03/09 08:47:48;;;;;;;35.47;14.10;;;;;;;;;;4915611;29;20114;-60
2022/03/09 08:50:14;;;;;;;23.60;12.93;;;;;;;;;;4915591;29;20036;-61
2022/03/09 08:52:41;;;;;;;24.15;13.32;;;;;;;;;;4915367;29;20032;-59
2022/03/09 08:55:07;;;;;;;25.15;12.43;;;;;;;;;;4915342;29;20043;-59
2022/03/09 08:57:33;;;;;;;24.00;12.73;;;;;;;;;;4915456;29;20043;-62
2022/03/09 09:00:03;;;;;;;14.43;7.88;;;;;;;;;;4915271;29;20036;-61
2022/03/09 09:02:30;;;;;;;23.98;12.95;;;;;;;;;;4914743;29;20099;-60
2022/03/09 09:04:56;;;;;;;16.25;7.88;;;;;;;;;;4915085;29;20028;-59
2022/03/09 09:07:22;;;;;;;15.18;6.78;;;;;;;;;;4915431;29;20068;-60
2022/03/09 09:09:48;;;;;;;26.02;13.65;;;;;;;;;;4915167;29;20380;-60
2022/03/09 09:12:14;;;;;;;14.95;8.32;;;;;;;;;;4915086;29;20020;-63
2022/03/09 09:14:40;;;;;;;66.45;29.35;;;;;;;;;;4914918;29;20024;-62
2022/03/09 09:17:07;;;;;;;36.20;17.85;;;;;;;;;;4914988;29;20024;-60
2022/03/09 09:19:33;;;;;;;27.73;16.42;;;;;;;;;;4915176;29;20036;-60
2022/03/09 09:22:00;;;;;;;28.15;15.40;;;;;;;;;;4914879;29;20039;-62
2022/03/09 09:24:26;;;;;;;30.98;14.50;;;;;;;;;;4917509;29;20036;-59
2022/03/09 09:26:52;;;;;;;35.30;17.17;;;;;;;;;;4919373;29;20040;-61
2022/03/09 09:29:18;;;;;;;28.42;14.52;;;;;;;;;;4923254;29;20016;-60
2022/03/09 09:31:44;;;;;;;26.83;13.90;;;;;;;;;;4923711;29;20039;-61
2022/03/09 09:34:10;;;;;;;23.33;12.68;;;;;;;;;;4924377;29;20064;-60
2022/03/09 09:36:36;;;;;;;25.67;13.38;;;;;;;;;;4922524;29;20025;-62
2022/03/09 09:39:03;;;;;;;26.70;14.77;;;;;;;;;;4924120;29;20034;-61
2022/03/09 09:41:33;;;;;;;26.75;13.63;;;;;;;;;;4924207;29;20404;-61
2022/03/09 09:43:59;;;;;;;27.80;15.27;;;;;;;;;;4922768;29;20050;-61
2022/03/09 09:46:25;;;;;;;23.55;13.00;;;;;;;;;;4923365;29;20158;-61
2022/03/09 09:48:51;;;;;;;22.30;12.20;;;;;;;;;;4924511;29;20031;-61
2022/03/09 09:51:18;;;;;;;28.05;14.45;;;;;;;;;;4922737;29;20032;-61
2022/03/09 09:53:44;;;;;;;28.63;14.25;;;;;;;;;;4922222;29;20024;-61
2022/03/09 09:56:13;;;;;;;31.95;16.77;;;;;;;;;;4924129;29;20066;-61
2022/03/09 09:58:41;;;;;;;22.73;12.02;;;;;;;;;;4923848;29;20095;-62
2022/03/09 10:01:07;;;;;;;21.17;11.35;;;;;;;;;;4919089;29;20056;-61
2022/03/09 10:03:33;;;;;;;17.40;7.82;;;;;;;;;;4922575;29;20052;-61
2022/03/09 10:05:59;;;;;;;11.07;6.32;;;;;;;;;;4923183;29;20503;-61
2022/03/09 10:08:25;;;;;;;22.42;11.98;;;;;;;;;;4923900;29;20024;-61
2022/03/09 10:11:01;;;;;;;25.13;14.45;;;;;;;;;;4922071;29;20060;-61
2022/03/09 10:13:31;;;;;;;21.40;11.52;;;;;;;;;;4914621;29;20025;-61
2022/03/09 10:16:06;;;;;;;19.63;10.75;;;;;;;;;;4913643;29;20473;-61
2022/03/09 10:18:33;;;;;;;17.65;9.18;;;;;;;;;;4911686;29;20476;-61
2022/03/09 10:21:08;;;;;;;21.70;11.05;;;;;;;;;;4913849;29;20451;-61
2022/03/09 10:23:34;;;;;;;18.83;10.02;;;;;;;;;;4912060;29;20028;-62
2022/03/09 10:26:01;;;;;;;39.28;22.83;;;;;;;;;;4913656;29;20031;-61
2022/03/09 10:28:27;;;;;;;18.00;9.48;;;;;;;;;;4913609;29;20031;-58
2022/03/09 10:30:53;;;;;;;23.58;12.65;;;;;;;;;;4913525;29;20095;-61
2022/03/09 10:33:20;;;;;;;19.50;10.50;;;;;;;;;;4913558;29;20097;-63
2022/03/09 10:35:49;;;;;;;21.27;9.98;;;;;;;;;;4913510;29;20032;-62
2022/03/09 10:38:15;;;;;;;16.65;8.07;;;;;;;;;;4915713;29;20032;-62
2022/03/09 10:40:45;;;;;;;15.20;8.35;;;;;;;;;;4917280;29;20553;-63
2022/03/09 10:43:16;;;;;;;13.57;6.68;;;;;;;;;;4914913;29;20032;-62
2022/03/09 10:45:58;;;;;;;12.65;5.82;;;;;;;;;;4917142;29;20021;-62
2022/03/09 10:48:24;;;;;;;17.50;9.73;;;;;;;;;;4899869;29;20056;-61
2022/03/09 10:50:51;;;;;;;12.10;6.80;;;;;;;;;;4917272;29;20421;-61
2022/03/09 10:53:17;;;;;;;18.45;9.45;;;;;;;;;;4917320;29;20028;-61
2022/03/09 10:55:43;;;;;;;25.63;10.48;;;;;;;;;;4917385;29;20032;-61
2022/03/09 10:58:16;;;;;;;15.43;8.68;;;;;;;;;;4916992;29;20039;-61
2022/03/09 11:00:42;;;;;;;;;;;;;;;;;;4917650;29;20032;-61
2022/03/09 11:03:27;;;;;;;16.83;8.43;;;;;;;;;;4935407;29;19970;-63
2022/03/09 11:05:54;;;;;;;23.27;10.93;;;;;;;;;;4936441;29;20049;-64
2022/03/09 11:08:22;;;;;;;12.65;6.57;;;;;;;;;;4935929;29;20472;-60
2022/03/09 11:10:48;;;;;;;13.50;5.63;;;;;;;;;;4936242;29;20116;-60
2022/03/09 11:13:15;;;;;;;20.80;10.82;;;;;;;;;;4935886;29;20028;-62
2022/03/09 11:15:42;;;;;;;24.85;11.95;;;;;;;;;;4935796;29;20098;-61
2022/03/09 11:18:09;;;;;;;23.42;9.27;;;;;;;;;;4936160;29;20024;-61
2022/03/09 11:20:35;;;;;;;16.27;9.98;;;;;;;;;;4935719;29;20571;-62
2022/03/09 11:23:01;;;;;;;19.45;9.35;;;;;;;;;;4935829;29;20468;-62
2022/03/09 11:25:28;;;;;;;18.77;8.85;;;;;;;;;;4935822;29;20059;-60
2022/03/09 11:27:55;;;;;;;20.52;9.50;;;;;;;;;;4935622;29;20429;-61
2022/03/09 11:30:29;;;;;;;14.10;6.63;;;;;;;;;;4935915;29;20476;-61
2022/03/09 11:32:56;;;;;;;20.23;8.95;;;;;;;;;;4918365;29;20483;-63
2022/03/09 11:35:34;;;;;;;13.43;5.93;;;;;;;;;;4934414;29;20460;-61
2022/03/09 11:38:00;;;;;;;19.48;9.07;;;;;;;;;;4931261;29;20484;-61
2022/03/09 11:40:27;;;;;;;18.25;10.38;;;;;;;;;;4928252;29;20050;-62
2022/03/09 11:42:53;;;;;;;20.33;10.35;;;;;;;;;;4934049;29;20026;-58
2022/03/09 11:45:30;;;;;;;23.33;12.55;;;;;;;;;;4933218;29;20023;-63
2022/03/09 11:47:57;;;;;;;16.67;9.02;;;;;;;;;;4932379;29;20499;-64
2022/03/09 11:50:24;;;;;;;23.75;11.80;;;;;;;;;;4933762;29;20762;-61
2022/03/09 11:53:06;;;;;;;11.85;5.55;;;;;;;;;;4933344;29;20019;-61
2022/03/09 11:55:34;;;;;;;18.45;9.80;;;;;;;;;;4933376;29;20467;-60
2022/03/09 11:58:01;;;;;;;17.60;8.48;;;;;;;;;;4931455;29;20023;-63
2022/03/09 12:00:27;;;;;;;22.60;10.40;;;;;;;;;;4934597;29;20050;-63
2022/03/09 12:02:55;;;;;;;18.27;10.02;;;;;;;;;;4951288;29;20507;-59
2022/03/09 12:05:35;;;;;;;14.93;7.70;;;;;;;;;;4953615;29;20019;-60
2022/03/09 12:08:01;;;;;;;14.18;7.22;;;;;;;;;;4953826;29;20039;-60
2022/03/09 12:10:39;;;;;;;17.92;7.95;;;;;;;;;;4954224;29;20098;-59
2022/03/09 12:13:10;;;;;;;17.60;10.43;;;;;;;;;;4953721;29;20033;-62
2022/03/09 12:15:56;;;;;;;17.23;7.25;;;;;;;;;;4953698;29;20034;-59
2022/03/09 12:18:33;;;;;;;48.15;19.33;;;;;;;;;;4952040;29;20031;-58
2022/03/09 12:20:59;;;;;;;15.57;7.25;;;;;;;;;;4953223;29;20043;-58
2022/03/09 12:23:25;;;;;;;26.88;13.68;;;;;;;;;;4935172;29;20506;-59
2022/03/09 12:25:52;;;;;;;17.92;9.05;;;;;;;;;;4952910;29;20028;-60
2022/03/09 12:28:24;;;;;;;21.00;10.45;;;;;;;;;;4953572;29;20027;-62
2022/03/09 12:30:57;;;;;;;16.08;7.97;;;;;;;;;;4953161;29;20030;-61
2022/03/09 12:33:35;;;;;;;10.52;6.80;;;;;;;;;;4950117;29;20081;-62
2022/03/09 12:36:11;;;;;;;15.80;8.93;;;;;;;;;;4950592;29;20105;-62
2022/03/09 12:38:38;;;;;;;18.80;8.88;;;;;;;;;;4951459;29;20550;-61
2022/03/09 12:41:05;;;;;;;14.00;6.68;;;;;;;;;;4953239;28;20051;-59
2022/03/09 12:43:47;;;;;;;19.40;9.73;;;;;;;;;;4946164;29;20038;-62
2022/03/09 12:46:13;;;;;;;20.48;9.10;;;;;;;;;;4952177;29;20514;-61
2022/03/09 12:48:40;;;;;;;28.05;15.07;;;;;;;;;;4952473;29;20130;-60
2022/03/09 12:51:06;;;;;;;25.23;14.50;;;;;;;;;;4948888;29;20483;-61
2022/03/09 12:53:33;;;;;;;17.35;9.07;;;;;;;;;;4931826;29;20491;-60
2022/03/09 12:56:12;;;;;;;26.05;13.73;;;;;;;;;;4949398;29;20480;-62
2022/03/09 12:58:39;;;;;;;15.90;8.88;;;;;;;;;;4949082;29;20027;-60
2022/03/09 13:01:05;;;;;;;14.88;8.77;;;;;;;;;;4947744;28;20107;-59
2022/03/09 13:03:31;;;;;;;17.48;9.15;;;;;;;;;;4949243;29;20031;-60
2022/03/09 13:05:57;;;;;;;21.30;10.02;;;;;;;;;;4949049;29;20102;-62
2022/03/09 13:08:32;;;;;;;22.67;10.10;;;;;;;;;;4949058;29;20615;-61
2022/03/09 13:10:59;;;;;;;19.15;8.40;;;;;;;;;;4948304;29;20031;-60
2022/03/09 13:13:30;;;;;;;12.90;7.45;;;;;;;;;;4947934;28;20118;-59
2022/03/09 13:15:59;;;;;;;34.10;18.77;;;;;;;;;;4948655;29;20434;-59
2022/03/09 13:18:28;;;;;;;21.70;11.88;;;;;;;;;;4948657;29;20042;-61
2022/03/09 13:20:55;;;;;;;18.73;11.02;;;;;;;;;;4946165;29;20138;-61
2022/03/09 13:23:27;;;;;;;18.80;11.95;;;;;;;;;;4947420;29;20034;-60
2022/03/09 13:25:53;;;;;;;19.48;11.55;;;;;;;;;;4947449;29;20027;-62
2022/03/09 13:28:29;;;;;;;18.42;9.40;;;;;;;;;;4945714;29;20035;-62
2022/03/09 13:30:55;;;;;;;19.55;11.32;;;;;;;;;;4929395;29;20050;-63
2022/03/09 13:33:22;;;;;;;20.05;11.73;;;;;;;;;;4946149;28;20114;-64
2022/03/09 13:35:51;;;;;;;22.35;12.40;;;;;;;;;;4949750;29;20054;-62
2022/03/09 13:38:24;;;;;;;20.90;11.90;;;;;;;;;;4934337;29;20549;-62
2022/03/09 13:40:51;;;;;;;29.65;17.48;;;;;;;;;;4951417;29;20042;-61
2022/03/09 13:43:18;;;;;;;22.05;12.30;;;;;;;;;;4950952;28;20042;-61
2022/03/09 13:45:44;;;;;;;31.10;15.30;;;;;;;;;;4951030;29;20019;-61
2022/03/09 13:48:19;;;;;;;23.95;13.10;;;;;;;;;;4950883;29;20027;-61
2022/03/09 13:50:59;;;;;;;28.52;17.90;;;;;;;;;;4950693;29;20027;-59
2022/03/09 13:53:30;;;;;;;22.33;13.60;;;;;;;;;;4948287;29;20038;-60
2022/03/09 13:55:56;;;;;;;16.25;7.88;;;;;;;;;;4952186;28;20019;-61
2022/03/09 13:58:23;;;;;;;28.42;15.95;;;;;;;;;;4951612;29;20058;-60
2022/03/09 14:00:50;;;;;;;22.27;13.40;;;;;;;;;;4951603;28;20082;-60
2022/03/09 14:03:20;;;;;;;27.17;14.93;;;;;;;;;;4952222;29;20058;-59
2022/03/09 14:05:50;;;;;;;28.35;15.27;;;;;;;;;;4951783;29;20495;-59
2022/03/09 14:08:27;;;;;;;24.73;14.48;;;;;;;;;;4949803;29;20046;-61
2022/03/09 14:11:06;;;;;;;41.00;22.40;;;;;;;;;;4949103;29;20031;-61
2022/03/09 14:13:33;;;;;;;35.45;19.88;;;;;;;;;;4932406;29;20023;-61
2022/03/09 14:15:59;;;;;;;24.02;12.93;;;;;;;;;;4933124;29;20034;-61
2022/03/09 14:18:26;;;;;;;21.60;11.82;;;;;;;;;;4944755;29;20063;-60
2022/03/09 14:20:52;;;;;;;21.42;10.60;;;;;;;;;;4933967;28;20134;-61
2022/03/09 14:23:19;;;;;;;24.13;12.85;;;;;;;;;;4951669;29;20103;-61
2022/03/09 14:25:45;;;;;;;23.92;13.50;;;;;;;;;;4952100;29;20027;-61
2022/03/09 14:28:11;;;;;;;24.60;13.60;;;;;;;;;;4950998;29;20046;-63
2022/03/09 14:30:37;;;;;;;28.15;14.48;;;;;;;;;;4950234;29;20106;-61
2022/03/09 14:33:03;;;;;;;25.33;13.40;;;;;;;;;;4951346;29;20071;-62
2022/03/09 14:35:29;;;;;;;23.25;14.10;;;;;;;;;;4951757;29;20046;-61
2022/03/09 14:37:56;;;;;;;23.13;13.65;;;;;;;;;;4951576;29;20087;-61
2022/03/09 14:40:23;;;;;;;20.55;11.98;;;;;;;;;;4951670;29;20055;-61
2022/03/09 14:42:50;;;;;;;26.88;13.27;;;;;;;;;;4950465;29;20110;-61
2022/03/09 14:45:16;;;;;;;23.83;13.85;;;;;;;;;;4950160;29;20031;-61
2022/03/09 14:47:46;;;;;;;29.08;14.88;;;;;;;;;;4950875;28;20023;-62
2022/03/09 14:50:13;;;;;;;23.77;13.95;;;;;;;;;;4948437;28;20546;-61
2022/03/09 14:52:39;;;;;;;31.48;16.02;;;;;;;;;;4949163;29;20035;-62
2022/03/09 14:55:06;;;;;;;31.75;16.40;;;;;;;;;;4950208;29;20035;-61
2022/03/09 14:57:32;;;;;;;30.83;16.42;;;;;;;;;;4951239;29;20090;-60
2022/03/09 14:59:58;;;;;;;33.15;17.75;;;;;;;;;;4952090;29;20110;-61
2022/03/09 15:02:24;;;;;;;31.08;17.77;;;;;;;;;;4951264;28;20091;-60
2022/03/09 15:04:50;;;;;;;33.10;17.65;;;;;;;;;;4951510;29;20034;-61
2022/03/09 15:07:18;;;;;;;31.60;17.52;;;;;;;;;;4951968;29;20521;-62
2022/03/09 15:09:44;;;;;;;35.70;19.83;;;;;;;;;;4951975;29;20111;-62
2022/03/09 15:12:10;;;;;;;32.35;17.00;;;;;;;;;;4950196;29;20039;-61
2022/03/09 15:14:37;;;;;;;27.88;16.17;;;;;;;;;;4936649;29;20448;-61
2022/03/09 15:17:03;;;;;;;31.83;17.65;;;;;;;;;;4940928;29;20063;-61
2022/03/09 15:19:29;;;;;;;30.40;17.00;;;;;;;;;;4938600;29;20024;-61
2022/03/09 15:21:55;;;;;;;31.77;17.25;;;;;;;;;;4941989;29;20039;-61
2022/03/09 15:24:23;;;;;;;29.52;16.75;;;;;;;;;;4946022;29;20073;-62
2022/03/09 15:26:49;;;;;;;31.25;17.85;;;;;;;;;;4955301;29;20023;-61
2022/03/09 15:29:15;;;;;;;31.83;18.15;;;;;;;;;;4943893;28;20043;-63
2022/03/09 15:31:43;;;;;;;31.80;18.48;;;;;;;;;;4935691;29;20027;-63
2022/03/09 15:34:10;;;;;;;31.98;18.75;;;;;;;;;;4935588;29;20112;-62
2022/03/09 15:36:36;;;;;;;30.90;18.00;;;;;;;;;;4940693;29;20038;-60
2022/03/09 15:39:03;;;;;;;34.40;18.02;;;;;;;;;;4945760;29;20026;-60
2022/03/09 15:41:29;;;;;;;29.33;16.75;;;;;;;;;;4941489;29;20027;-60
2022/03/09 15:43:55;;;;;;;29.77;17.48;;;;;;;;;;4944833;29;20043;-61
2022/03/09 15:46:21;;;;;;;31.13;17.63;;;;;;;;;;4935908;29;20034;-61
2022/03/09 15:48:48;;;;;;;28.77;17.83;;;;;;;;;;4935607;29;20027;-61
2022/03/09 15:51:17;;;;;;;29.15;17.98;;;;;;;;;;4935906;29;20032;-60
2022/03/09 15:53:44;;;;;;;35.35;19.63;;;;;;;;;;4935646;29;20084;-62
2022/03/09 15:56:10;;;;;;;32.05;19.38;;;;;;;;;;4935529;29;20078;-61
2022/03/09 15:58:36;;;;;;;34.17;18.77;;;;;;;;;;4935454;29;20039;-61
2022/03/09 16:01:02;;;;;;;32.78;17.90;;;;;;;;;;4937490;29;20335;-60
2022/03/09 16:03:28;;;;;;;34.63;18.45;;;;;;;;;;4954398;29;20443;-62
2022/03/09 16:05:54;;;;;;;32.92;18.17;;;;;;;;;;4954425;28;20026;-62
2022/03/09 16:08:21;;;;;;;32.20;17.55;;;;;;;;;;4954368;29;20035;-61
2022/03/09 16:10:47;;;;;;;32.60;18.88;;;;;;;;;;4954121;29;20578;-62
2022/03/09 16:13:14;;;;;;;32.58;18.88;;;;;;;;;;4954047;29;20038;-61
2022/03/09 16:15:40;;;;;;;34.85;20.42;;;;;;;;;;4954150;29;20466;-61
2022/03/09 16:18:06;;;;;;;36.50;19.10;;;;;;;;;;4953614;29;20046;-62
2022/03/09 16:20:33;;;;;;;32.13;18.10;;;;;;;;;;4953741;29;20031;-62
2022/03/09 16:22:59;;;;;;;31.17;18.67;;;;;;;;;;4953714;29;20031;-61
2022/03/09 16:25:25;;;;;;;36.00;19.45;;;;;;;;;;4953313;29;20039;-61
2022/03/09 16:27:51;;;;;;;34.63;18.70;;;;;;;;;;4952850;29;20114;-62
2022/03/09 16:30:17;;;;;;;35.83;20.48;;;;;;;;;;4953512;29;20027;-62
2022/03/09 16:32:44;;;;;;;33.60;19.83;;;;;;;;;;4953477;28;20054;-62
2022/03/09 16:35:11;;;;;;;34.80;18.70;;;;;;;;;;4952658;28;20032;-61
2022/03/09 16:37:38;;;;;;;36.65;20.15;;;;;;;;;;4953320;29;20026;-61
2022/03/09 16:40:05;;;;;;;34.97;18.98;;;;;;;;;;4953150;29;20031;-61
2022/03/09 16:42:31;;;;;;;39.08;21.85;;;;;;;;;;4953199;29;20055;-60
2022/03/09 16:44:57;;;;;;;36.45;19.95;;;;;;;;;;4952573;29;20027;-62
2022/03/09 16:47:23;;;;;;;34.55;19.35;;;;;;;;;;4952822;29;20092;-60
2022/03/09 16:49:49;;;;;;;33.97;19.10;;;;;;;;;;4952995;29;20031;-63
2022/03/09 16:52:15;;;;;;;30.33;18.20;;;;;;;;;;4936215;29;20114;-61
2022/03/09 16:54:41;;;;;;;31.33;17.88;;;;;;;;;;4953037;29;20035;-61
2022/03/09 16:57:08;;;;;;;31.60;18.30;;;;;;;;;;4952943;29;20027;-63
2022/03/09 16:59:34;;;;;;;30.85;18.33;;;;;;;;;;4951775;29;20042;-60
2022/03/09 17:02:00;;;;;;;39.45;21.23;;;;;;;;;;4952016;29;20051;-63
2022/03/09 17:04:26;;;;;;;33.30;19.25;;;;;;;;;;4952349;28;20023;-61
2022/03/09 17:06:52;;;;;;;31.25;18.63;;;;;;;;;;4952767;29;20035;-60
2022/03/09 17:09:18;;;;;;;34.10;19.17;;;;;;;;;;4952527;29;20047;-63
2022/03/09 17:11:45;;;;;;;36.28;20.50;;;;;;;;;;4953046;29;20039;-61
2022/03/09 17:14:11;;;;;;;36.15;20.13;;;;;;;;;;4952688;29;20023;-61
2022/03/09 17:16:37;;;;;;;38.25;20.42;;;;;;;;;;4949186;28;20110;-64
2022/03/09 17:19:03;;;;;;;36.80;20.70;;;;;;;;;;4952415;28;20019;-60
2022/03/09 17:21:29;;;;;;;35.50;21.17;;;;;;;;;;4952355;29;20551;-63
2022/03/09 17:23:55;;;;;;;43.42;23.05;;;;;;;;;;4952011;29;20039;-60
2022/03/09 17:26:21;;;;;;;38.03;21.45;;;;;;;;;;4952276;29;20094;-60
2022/03/09 17:28:47;;;;;;;42.75;20.88;;;;;;;;;;4952074;29;20050;-59
2022/03/09 17:31:13;;;;;;;36.03;20.77;;;;;;;;;;4952211;29;20027;-63
2022/03/09 17:33:42;;;;;;;40.20;21.00;;;;;;;;;;4951654;29;20117;-61
2022/03/09 17:36:08;;;;;;;38.35;21.73;;;;;;;;;;4951908;29;20023;-65
2022/03/09 17:38:36;;;;;;;36.22;21.60;;;;;;;;;;4951371;29;20146;-61
2022/03/09 17:41:02;;;;;;;40.58;21.73;;;;;;;;;;4935887;29;20035;-64
2022/03/09 17:43:28;;;;;;;38.92;21.85;;;;;;;;;;4952235;29;20028;-61
2022/03/09 17:45:54;;;;;;;39.00;22.13;;;;;;;;;;4945896;29;20078;-60
2022/03/09 17:48:20;;;;;;;40.55;23.15;;;;;;;;;;4951155;28;20035;-65
2022/03/09 17:50:47;;;;;;;47.30;25.17;;;;;;;;;;4951204;29;20058;-64
2022/03/09 17:53:13;;;;;;;42.35;23.70;;;;;;;;;;4934046;29;20484;-57
2022/03/09 17:55:39;;;;;;;45.22;24.40;;;;;;;;;;4932931;29;20039;-60
2022/03/09 17:58:05;;;;;;;46.92;25.52;;;;;;;;;;4950934;29;20058;-61
2022/03/09 18:00:31;;;;;;;45.80;24.80;;;;;;;;;;4953026;29;20027;-60
2022/03/09 18:02:58;;;;;;;44.53;24.92;;;;;;;;;;4951623;28;20055;-65
2022/03/09 18:05:24;;;;;;;49.38;26.10;;;;;;;;;;4946553;29;20027;-59
2022/03/09 18:07:50;;;;;;;47.28;26.30;;;;;;;;;;4948251;28;20070;-60
2022/03/09 18:10:16;;;;;;;49.13;26.83;;;;;;;;;;4950679;29;20030;-62
2022/03/09 18:12:43;;;;;;;50.03;26.77;;;;;;;;;;4950174;29;20137;-57
2022/03/09 18:15:10;;;;;;;47.83;27.50;;;;;;;;;;4950431;29;20027;-58
2022/03/09 18:17:36;;;;;;;52.78;29.80;;;;;;;;;;4949520;29;20503;-60
2022/03/09 18:20:04;;;;;;;50.25;27.92;;;;;;;;;;4947862;29;20387;-61
2022/03/09 18:22:30;;;;;;;50.15;26.80;;;;;;;;;;4949436;29;20039;-61
2022/03/09 18:24:56;;;;;;;47.30;26.02;;;;;;;;;;4949725;29;20034;-61
2022/03/09 18:27:22;;;;;;;46.40;26.52;;;;;;;;;;4950155;29;20019;-61
2022/03/09 18:29:49;;;;;;;50.97;27.38;;;;;;;;;;4949889;29;20019;-65
2022/03/09 18:32:15;;;;;;;54.25;26.98;;;;;;;;;;4950735;29;20035;-60
2022/03/09 18:34:41;;;;;;;53.75;27.13;;;;;;;;;;4950768;29;20043;-61
2022/03/09 18:37:07;;;;;;;49.05;26.23;;;;;;;;;;4950723;29;20039;-61
2022/03/09 18:39:34;;;;;;;48.15;25.88;;;;;;;;;;4950811;29;20035;-59
2022/03/09 18:42:00;;;;;;;50.70;26.55;;;;;;;;;;4950279;29;20081;-61
2022/03/09 18:44:26;;;;;;;53.75;30.00;;;;;;;;;;4950469;29;20027;-62
2022/03/09 18:46:52;;;;;;;48.63;26.77;;;;;;;;;;4951021;29;20104;-61
2022/03/09 18:49:18;;;;;;;46.40;24.88;;;;;;;;;;4951077;29;20713;-61
2022/03/09 18:51:44;;;;;;;44.97;24.50;;;;;;;;;;4950664;29;20177;-63
2022/03/09 18:54:11;;;;;;;43.88;24.30;;;;;;;;;;4951029;29;20098;-62
2022/03/09 18:56:38;;;;;;;46.35;24.42;;;;;;;;;;4951202;29;20023;-65
2022/03/09 18:59:04;;;;;;;46.28;23.67;;;;;;;;;;4951135;28;20115;-60
2022/03/09 19:01:30;;;;;;;48.78;24.98;;;;;;;;;;4952162;29;20040;-62
2022/03/09 19:03:56;;;;;;;46.65;23.90;;;;;;;;;;4954463;29;20035;-63
2022/03/09 19:06:22;;;;;;;42.53;24.15;;;;;;;;;;4954306;29;20031;-64
2022/03/09 19:08:48;;;;;;;49.20;24.55;;;;;;;;;;4953995;28;20074;-61
2022/03/09 19:11:14;;;;;;;44.78;24.23;;;;;;;;;;4950151;28;20526;-64
2022/03/09 19:13:40;;;;;;;44.38;24.45;;;;;;;;;;4946395;28;20038;-61
2022/03/09 19:16:06;;;;;;;47.90;25.08;;;;;;;;;;4953206;28;20074;-61
2022/03/09 19:18:33;;;;;;;46.90;23.60;;;;;;;;;;4930956;29;20031;-61
2022/03/09 19:20:59;;;;;;;41.58;22.25;;;;;;;;;;4953915;29;20055;-64
2022/03/09 19:23:25;;;;;;;39.10;21.80;;;;;;;;;;4954503;29;20035;-61
2022/03/09 19:25:51;;;;;;;33.33;20.13;;;;;;;;;;4954636;29;20058;-60
2022/03/09 19:28:17;;;;;;;56.08;24.73;;;;;;;;;;4954744;29;20046;-60
2022/03/09 19:30:43;;;;;;;44.05;21.92;;;;;;;;;;4940864;29;20031;-64
2022/03/09 19:33:09;;;;;;;37.53;20.70;;;;;;;;;;4953816;29;20066;-61
2022/03/09 19:35:36;;;;;;;36.75;20.98;;;;;;;;;;4947917;29;20039;-62
2022/03/09 19:38:06;;;;;;;42.33;22.25;;;;;;;;;;4953420;29;20349;-61
2022/03/09 19:40:32;;;;;;;37.65;20.48;;;;;;;;;;4953941;29;20062;-62
2022/03/09 19:42:58;;;;;;;37.25;21.52;;;;;;;;;;4953928;29;20027;-62
2022/03/09 19:45:24;;;;;;;41.10;22.20;;;;;;;;;;4954012;29;20054;-65
2022/03/09 19:47:51;;;;;;;41.63;22.15;;;;;;;;;;4953932;29;20379;-64
2022/03/09 19:50:17;;;;;;;37.35;21.60;;;;;;;;;;4954025;29;20086;-63
2022/03/09 19:52:45;;;;;;;40.85;21.90;;;;;;;;;;4950115;29;20023;-64
2022/03/09 19:55:11;;;;;;;50.35;27.85;;;;;;;;;;4951290;29;20023;-64
2022/03/09 19:57:37;;;;;;;43.55;22.05;;;;;;;;;;4953490;29;20034;-64
2022/03/09 20:00:08;;;;;;;38.30;21.45;;;;;;;;;;4954084;29;20027;-65
2022/03/09 20:02:35;;;;;;;36.42;21.08;;;;;;;;;;4953742;28;20059;-65
2022/03/09 20:05:03;;;;;;;38.42;21.25;;;;;;;;;;4953626;28;20414;-61
2022/03/09 20:07:29;;;;;;;37.85;21.25;;;;;;;;;;4954106;29;20230;-64
2022/03/09 20:09:55;;;;;;;39.47;22.65;;;;;;;;;;4953410;28;20031;-60
2022/03/09 20:12:21;;;;;;;42.25;22.88;;;;;;;;;;4954003;29;20047;-61
2022/03/09 20:14:47;;;;;;;43.20;22.55;;;;;;;;;;4953429;29;20498;-61
2022/03/09 20:17:13;;;;;;;38.55;21.95;;;;;;;;;;4953052;29;20050;-61
2022/03/09 20:19:40;;;;;;;43.03;23.00;;;;;;;;;;4953577;29;20209;-61
2022/03/09 20:22:06;;;;;;;42.83;23.13;;;;;;;;;;4953623;28;20038;-63
2022/03/09 20:24:33;;;;;;;37.83;21.10;;;;;;;;;;4953856;29;20027;-65
2022/03/09 20:27:00;;;;;;;37.15;21.00;;;;;;;;;;4953930;29;20027;-64
2022/03/09 20:29:26;;;;;;;41.20;22.73;;;;;;;;;;4953623;28;20028;-62
2022/03/09 20:31:53;;;;;;;37.28;21.80;;;;;;;;;;4935875;29;20135;-64
2022/03/09 20:34:19;;;;;;;39.95;22.35;;;;;;;;;;4952982;29;20027;-61
2022/03/09 20:36:46;;;;;;;36.25;21.40;;;;;;;;;;4953005;29;20027;-63
2022/03/09 20:39:13;;;;;;;39.63;21.77;;;;;;;;;;4936154;29;20034;-64
2022/03/09 20:41:39;;;;;;;35.53;20.10;;;;;;;;;;4947433;29;20035;-66
2022/03/09 20:44:05;;;;;;;41.17;21.25;;;;;;;;;;4953183;29;20224;-62
2022/03/09 20:46:31;;;;;;;39.30;21.52;;;;;;;;;;4953741;28;20019;-66
2022/03/09 20:48:57;;;;;;;38.25;21.67;;;;;;;;;;4935913;29;20384;-60
2022/03/09 20:51:23;;;;;;;37.03;21.67;;;;;;;;;;4953201;29;20061;-62
2022/03/09 20:53:49;;;;;;;33.33;16.05;;;;;;;;;;4952677;28;20375;-62
2022/03/09 20:56:16;;;;;;;29.88;17.40;;;;;;;;;;4953406;29;20118;-63
2022/03/09 20:58:42;;;;;;;28.25;16.48;;;;;;;;;;4952860;29;20075;-61
2022/03/09 21:01:08;;;;;;;27.70;16.50;;;;;;;;;;4952251;28;20054;-60
2022/03/09 21:03:35;;;;;;;23.67;14.88;;;;;;;;;;4952825;29;20031;-59
2022/03/09 21:06:01;;;;;;;32.25;19.58;;;;;;;;;;4952763;29;20027;-60
2022/03/09 21:08:28;;;;;;;26.08;14.82;;;;;;;;;;4953035;29;20110;-60
2022/03/09 21:10:54;;;;;;;24.00;12.68;;;;;;;;;;4937752;29;20027;-62
2022/03/09 21:13:20;;;;;;;26.15;13.88;;;;;;;;;;4942327;28;20111;-64
2022/03/09 21:15:51;;;;;;;22.80;12.30;;;;;;;;;;4939297;29;20110;-60
2022/03/09 21:18:18;;;;;;;26.88;14.55;;;;;;;;;;4948982;29;20102;-60
2022/03/09 21:20:44;;;;;;;27.85;15.85;;;;;;;;;;4937731;29;20047;-59